Saturday, November 22, 2014
10:12 UTC
  |  Log In   |  Register Free
Airport Search:

Meyers-Diver'S Airport
(3TE)

Meyers-Diver'S Airport Diagram
No Airport Diagram Available

FAA data valid effective November 13, 2014 - January 08, 2015 (unless otherwise noted).

 
 
 
 
 
 
 
 
 
 
 
 
 
 

Current Aviation Weather for Meyers-Diver'S Airport (3TE)

METAR data is unavailable for 3TE. The nearest METAR location is at KADG (11.3 nm SW from 3TE).

The most recent METAR observation for KADG was updated at: 1010
METAR Summary (Translated METAR)
KADG
220953Z AUTO 21008KT 10SM OVC027 M03/M09 A3019 RMK AO2 SLP236 T10331089
(11.3 nm SW from 3TE)
KARB
221000Z AUTO 19007KT 10SM OVC027 M04/M10 A3017 RMK AO2 T10391100
(14.7 nm NE from 3TE)
TAF
No TAF information found within 50 nm of KADG
  Airport Weather Conditions for 3TE

Current weather conditions are
not available for 3TE


The nearest NOAA weather station
is at ADG, (11.3 nm SW from 3TE)
  
 Current Weather at ADG
24° F
Overcast
Southwest winds at 10.4 mph
ADG NOAA Radar

Pressure: 30.23 in
Humidity: 65%
Wind: Southwest at 10.4 MPH (9 KT)
Dew Point: 14.0°F
Visibility: 10.00 mi


Airport Weather Forecast for 3TE

Translated METAR and TAF for KADG
Translated METAR for KADG (1007 UTC 22 November 2014)
found at http://aviationweather.gov/adds/metars/
 
METAR text: KADG 220953Z AUTO 21008KT 10SM OVC027 M03/M09 A3019 RMK AO2 SLP236 T10331089
Conditions at: KADG (ADRIAN , MI, US) observed 0953 UTC 22 November 2014
Temperature: -3.3°C (26°F)
Dewpoint: -8.9°C (16°F) [RH = 65%]
Pressure (altimeter): 30.19 inches Hg (1022.4 mb)
[Sea-level pressure: 1023.6 mb]
Winds: from the SSW (210 degrees) at 9 MPH (8 knots; 4.2 m/s)
Visibility: 10 or more miles (16+ km)
Ceiling: 2700 feet AGL
Clouds: overcast cloud deck at 2700 feet AGL
Weather: automated observation with no human augmentation;
there may or may not be significant weather present at this time
Translated TAF for KADG

There is no translated TAF available for this airport

Find All Airport Services Find A Hotel Find A Rental Car Find A Golf Course Find A Restaurant $100 Hamburger



FBO's on the Field
FBO Company Facility Photos Services Transportation Aviation Fuel Prices: Prices include tax
Catering Weather Repair Courtesy Rental Type 100LL JetA JetA+ MOGAS 8087
 
Village of Boyceville

This FBO has not yet been rated
FS:Shell
Last Updated: Nov-06
Login to update fuel prices
SS:
Contact Village of BoycevilleMore FBO Information
 
Add another FBO Facility Photos Catering Weather Repair Courtesy Rental Type 100LL JetA JetA+ MOGAS 8087
Services Transportation Aviation Fuel Prices: Prices include tax


model-print
model-print
model-print
model-print